PLF130 EPWA-UTDD
Flight info
| Callsign | PLF130 |
|---|---|
| Flight time | 5h 18m |
| Altitude | 35000 |
| Route | XIMBA N195 OMAVA DCT ROBTU DCT HATIP DCT ROMKA DCT KARIL DCT BOKDO DCT URELA DCT DINRO N743 UDROS UM859 KARDE UN644 ROLIN N644 LAGAS M747 SUBUT T923 ERLEV M11 RODAR A909 BABUM A477 AKRAM R226 MANAT/K0833F350 Z777 INDUD Q169 SOPNO SOPNO1E |
| Aircraft | B738/M-SDE2E3FGHIRWXY/LB1 |
Departure
| Time | 2026-04-14 06:21 |
|---|---|
| Airport | Warsaw Chopin Airport (EPWA) |
Arrival
| Time | 2026-04-14 11:39 |
|---|---|
| Airport | Dushanbe International Airport (UTDD) |
| Time | Latitude | Longitude | Altitude | Speed | Heading |
|---|---|---|---|---|---|
| 2026-04-14 05:42 | 52.17406 | 20.97246 | 345 ft | 0 kts | 242° |
| 2026-04-14 06:14 | 52.17400 | 20.97228 | 344 ft | 4 kts | 242° |
| 2026-04-14 06:14 | 52.17400 | 20.97155 | 342 ft | 8 kts | 312° |
| 2026-04-14 06:14 | 52.17449 | 20.97108 | 341 ft | 8 kts | 332° |
| 2026-04-14 06:14 | 52.17497 | 20.97066 | 341 ft | 7 kts | 332° |
| 2026-04-14 06:15 | 52.17540 | 20.97028 | 341 ft | 6 kts | 332° |
| 2026-04-14 06:15 | 52.17582 | 20.96991 | 341 ft | 7 kts | 332° |
| 2026-04-14 06:15 | 52.17629 | 20.96951 | 341 ft | 7 kts | 332° |
| 2026-04-14 06:15 | 52.17643 | 20.96881 | 340 ft | 8 kts | 250° |
| 2026-04-14 06:16 | 52.17607 | 20.96786 | 338 ft | 10 kts | 238° |
| 2026-04-14 06:16 | 52.17563 | 20.96669 | 336 ft | 13 kts | 237° |
| 2026-04-14 06:16 | 52.17504 | 20.96542 | 333 ft | 15 kts | 227° |
| 2026-04-14 06:16 | 52.17453 | 20.96402 | 332 ft | 6 kts | 242° |
| 2026-04-14 06:17 | 52.17445 | 20.96365 | 333 ft | 2 kts | 274° |
| 2026-04-14 06:17 | 52.17462 | 20.96334 | 333 ft | 6 kts | 328° |
| 2026-04-14 06:17 | 52.17515 | 20.96288 | 333 ft | 10 kts | 332° |
| 2026-04-14 06:17 | 52.17571 | 20.96237 | 334 ft | 5 kts | 314° |
| 2026-04-14 06:18 | 52.17581 | 20.96195 | 335 ft | 2 kts | 278° |
| 2026-04-14 06:18 | 52.17581 | 20.96158 | 336 ft | 4 kts | 266° |
| 2026-04-14 06:18 | 52.17571 | 20.96103 | 337 ft | 4 kts | 234° |
| 2026-04-14 06:18 | 52.17550 | 20.96075 | 338 ft | 5 kts | 211° |
| 2026-04-14 06:19 | 52.17509 | 20.96040 | 338 ft | 8 kts | 207° |
| 2026-04-14 06:19 | 52.17449 | 20.95992 | 339 ft | 10 kts | 205° |
| 2026-04-14 06:19 | 52.17399 | 20.95992 | 339 ft | 3 kts | 152° |
| 2026-04-14 06:19 | 52.17397 | 20.95994 | 339 ft | 2 kts | 152° |
| 2026-04-14 06:20 | 52.17263 | 20.96113 | 338 ft | 53 kts | 151° |
| 2026-04-14 06:20 | 52.16750 | 20.96561 | 330 ft | 112 kts | 151° |
| 2026-04-14 06:20 | 52.15908 | 20.97297 | 339 ft | 160 kts | 150° |
| 2026-04-14 06:20 | 52.14908 | 20.98162 | 877 ft | 161 kts | 148° |
| 2026-04-14 06:21 | 52.13960 | 20.98958 | 1600 ft | 153 kts | 148° |
| 2026-04-14 06:21 | 52.13054 | 20.99723 | 2250 ft | 146 kts | 149° |
| 2026-04-14 06:21 | 52.12141 | 21.00484 | 2676 ft | 152 kts | 156° |
| 2026-04-14 06:21 | 52.11100 | 21.00841 | 3157 ft | 156 kts | 167° |
| 2026-04-14 06:22 | 52.10019 | 21.01114 | 3594 ft | 160 kts | 165° |
| 2026-04-14 06:22 | 52.08869 | 21.01522 | 3799 ft | 179 kts | 164° |
| 2026-04-14 06:22 | 52.07598 | 21.01984 | 4096 ft | 195 kts | 165° |
| 2026-04-14 06:22 | 52.06215 | 21.02466 | 4393 ft | 212 kts | 166° |
| 2026-04-14 06:23 | 52.04720 | 21.02976 | 4738 ft | 227 kts | 166° |
| 2026-04-14 06:23 | 52.03139 | 21.03517 | 5042 ft | 243 kts | 166° |
| 2026-04-14 06:23 | 52.01454 | 21.04087 | 5532 ft | 252 kts | 168° |
| 2026-04-14 06:23 | 51.99712 | 21.04551 | 6117 ft | 256 kts | 171° |
| 2026-04-14 06:24 | 51.97930 | 21.04928 | 6682 ft | 261 kts | 172° |
| 2026-04-14 06:24 | 51.96138 | 21.05296 | 7268 ft | 265 kts | 172° |
| 2026-04-14 06:24 | 51.94294 | 21.05689 | 7870 ft | 268 kts | 171° |
| 2026-04-14 06:24 | 51.92455 | 21.06092 | 8425 ft | 272 kts | 171° |
| 2026-04-14 06:25 | 51.90564 | 21.06512 | 8988 ft | 276 kts | 171° |
| 2026-04-14 06:25 | 51.88665 | 21.06935 | 9538 ft | 279 kts | 171° |
| 2026-04-14 06:25 | 51.86731 | 21.07365 | 10108 ft | 283 kts | 171° |
| 2026-04-14 06:25 | 51.84786 | 21.07798 | 10508 ft | 292 kts | 171° |
| 2026-04-14 06:26 | 51.82733 | 21.08253 | 10712 ft | 308 kts | 171° |
| 2026-04-14 06:26 | 51.80555 | 21.08735 | 10929 ft | 323 kts | 172° |
| 2026-04-14 06:26 | 51.78292 | 21.09233 | 11149 ft | 337 kts | 172° |
| 2026-04-14 06:26 | 51.75903 | 21.09753 | 11366 ft | 352 kts | 172° |
| 2026-04-14 06:27 | 51.73446 | 21.10294 | 11555 ft | 366 kts | 172° |
| 2026-04-14 06:27 | 51.70885 | 21.10861 | 11971 ft | 374 kts | 172° |
| 2026-04-14 06:27 | 51.68310 | 21.11431 | 12495 ft | 378 kts | 173° |
| 2026-04-14 06:27 | 51.65716 | 21.12004 | 13009 ft | 383 kts | 173° |
| 2026-04-14 06:28 | 51.63048 | 21.12592 | 13532 ft | 387 kts | 173° |
| 2026-04-14 06:28 | 51.60399 | 21.13173 | 14110 ft | 390 kts | 174° |
| 2026-04-14 06:28 | 51.57715 | 21.13761 | 14669 ft | 393 kts | 174° |
| 2026-04-14 06:28 | 51.54969 | 21.14361 | 15255 ft | 396 kts | 174° |
| 2026-04-14 06:29 | 51.52252 | 21.14955 | 15859 ft | 399 kts | 174° |
| 2026-04-14 06:29 | 51.49492 | 21.15558 | 16438 ft | 401 kts | 173° |
| 2026-04-14 06:29 | 51.46743 | 21.16157 | 16928 ft | 406 kts | 174° |
| 2026-04-14 06:29 | 51.43950 | 21.16766 | 17487 ft | 408 kts | 173° |
| 2026-04-14 06:30 | 51.41096 | 21.17388 | 18014 ft | 411 kts | 174° |
| 2026-04-14 06:30 | 51.38290 | 21.17998 | 18555 ft | 413 kts | 174° |
| 2026-04-14 06:30 | 51.35426 | 21.18620 | 19053 ft | 417 kts | 174° |
| 2026-04-14 06:30 | 51.32586 | 21.19235 | 19579 ft | 419 kts | 173° |
| 2026-04-14 06:31 | 51.29700 | 21.19860 | 20070 ft | 422 kts | 174° |
| 2026-04-14 06:31 | 51.26772 | 21.20493 | 20591 ft | 424 kts | 173° |
| 2026-04-14 06:31 | 51.23853 | 21.21123 | 21037 ft | 427 kts | 173° |
| 2026-04-14 06:31 | 51.20889 | 21.21762 | 21470 ft | 431 kts | 174° |
| 2026-04-14 06:32 | 51.17925 | 21.22401 | 21911 ft | 433 kts | 173° |
| 2026-04-14 06:32 | 51.14941 | 21.23043 | 22319 ft | 436 kts | 173° |
| 2026-04-14 06:32 | 51.11927 | 21.23691 | 22752 ft | 439 kts | 173° |
| 2026-04-14 06:32 | 51.08890 | 21.24343 | 23148 ft | 442 kts | 173° |
| 2026-04-14 06:33 | 51.05886 | 21.24987 | 23561 ft | 444 kts | 173° |
| 2026-04-14 06:33 | 51.02800 | 21.25646 | 23947 ft | 446 kts | 173° |
| 2026-04-14 06:33 | 50.99720 | 21.26304 | 24313 ft | 450 kts | 173° |
| 2026-04-14 06:34 | 50.93504 | 21.27639 | 25100 ft | 454 kts | 173° |
| 2026-04-14 06:34 | 50.90392 | 21.28304 | 25529 ft | 455 kts | 173° |
| 2026-04-14 06:34 | 50.87222 | 21.28982 | 25924 ft | 457 kts | 173° |
| 2026-04-14 06:34 | 50.84099 | 21.29647 | 26215 ft | 462 kts | 173° |
| 2026-04-14 06:35 | 50.80923 | 21.30319 | 26592 ft | 463 kts | 173° |
| 2026-04-14 06:35 | 50.77696 | 21.31001 | 26900 ft | 467 kts | 173° |
| 2026-04-14 06:35 | 50.74461 | 21.31684 | 27238 ft | 469 kts | 173° |
| 2026-04-14 06:35 | 50.71237 | 21.32363 | 27583 ft | 471 kts | 173° |
| 2026-04-14 06:36 | 50.68007 | 21.33042 | 27929 ft | 472 kts | 173° |
| 2026-04-14 06:36 | 50.64724 | 21.33734 | 28411 ft | 471 kts | 173° |
| 2026-04-14 06:36 | 50.61470 | 21.34420 | 28979 ft | 467 kts | 173° |
| 2026-04-14 06:36 | 50.58247 | 21.35098 | 29493 ft | 464 kts | 173° |
| 2026-04-14 06:37 | 50.55057 | 21.35769 | 29867 ft | 464 kts | 173° |
| 2026-04-14 06:37 | 50.51883 | 21.36435 | 30293 ft | 462 kts | 173° |
| 2026-04-14 06:37 | 50.48677 | 21.37105 | 30524 ft | 466 kts | 173° |
| 2026-04-14 06:37 | 50.45443 | 21.37780 | 30833 ft | 466 kts | 173° |
| 2026-04-14 06:38 | 50.42266 | 21.38443 | 31130 ft | 468 kts | 173° |
| 2026-04-14 06:38 | 50.39043 | 21.39116 | 31641 ft | 464 kts | 173° |
| 2026-04-14 06:38 | 50.35894 | 21.39773 | 32246 ft | 457 kts | 173° |
| 2026-04-14 06:38 | 50.32762 | 21.40423 | 32627 ft | 456 kts | 173° |
| 2026-04-14 06:39 | 50.29623 | 21.41074 | 33046 ft | 453 kts | 173° |
| 2026-04-14 06:39 | 50.26522 | 21.41716 | 33399 ft | 452 kts | 173° |
| 2026-04-14 06:39 | 50.23402 | 21.42360 | 33729 ft | 451 kts | 173° |
| 2026-04-14 06:39 | 50.20303 | 21.43000 | 34113 ft | 449 kts | 173° |
| 2026-04-14 06:40 | 50.17237 | 21.43633 | 34422 ft | 448 kts | 173° |
| 2026-04-14 06:40 | 50.14153 | 21.44268 | 34727 ft | 446 kts | 173° |
| 2026-04-14 06:40 | 50.11108 | 21.44894 | 34939 ft | 447 kts | 173° |
| 2026-04-14 06:40 | 50.07989 | 21.45536 | 35105 ft | 447 kts | 173° |
| 2026-04-14 06:41 | 50.01828 | 21.46798 | 35131 ft | 448 kts | 173° |
| 2026-04-14 06:41 | 49.95688 | 21.48053 | 35128 ft | 446 kts | 173° |
| 2026-04-14 06:42 | 49.89523 | 21.49311 | 35130 ft | 446 kts | 173° |
| 2026-04-14 06:42 | 49.83412 | 21.50555 | 35129 ft | 446 kts | 173° |
| 2026-04-14 06:43 | 49.77249 | 21.51805 | 35134 ft | 445 kts | 173° |
| 2026-04-14 06:43 | 49.71155 | 21.53039 | 35132 ft | 445 kts | 173° |
| 2026-04-14 06:44 | 49.64991 | 21.54284 | 35133 ft | 445 kts | 173° |
| 2026-04-14 06:44 | 49.58866 | 21.55522 | 35126 ft | 444 kts | 173° |
| 2026-04-14 06:45 | 49.52768 | 21.56746 | 35128 ft | 444 kts | 173° |
| 2026-04-14 06:45 | 49.46615 | 21.57978 | 35129 ft | 445 kts | 173° |
| 2026-04-14 06:46 | 49.37436 | 21.59809 | 35133 ft | 445 kts | 173° |
| 2026-04-14 06:47 | 49.31339 | 21.61022 | 35137 ft | 444 kts | 173° |
| 2026-04-14 06:47 | 49.25250 | 21.62231 | 35137 ft | 443 kts | 173° |
| 2026-04-14 06:48 | 49.19125 | 21.63444 | 35139 ft | 443 kts | 173° |
| 2026-04-14 06:48 | 49.13031 | 21.64648 | 35138 ft | 443 kts | 172° |
| 2026-04-14 06:49 | 49.06894 | 21.65858 | 35143 ft | 444 kts | 173° |
| 2026-04-14 06:49 | 49.00809 | 21.67054 | 35143 ft | 444 kts | 173° |
| 2026-04-14 06:50 | 48.94702 | 21.68252 | 35142 ft | 444 kts | 173° |
| 2026-04-14 06:50 | 48.88548 | 21.69457 | 35146 ft | 444 kts | 173° |
| 2026-04-14 06:51 | 48.82442 | 21.70650 | 35144 ft | 443 kts | 173° |
| 2026-04-14 06:51 | 48.76364 | 21.71833 | 35143 ft | 442 kts | 173° |
| 2026-04-14 06:52 | 48.70261 | 21.73078 | 35144 ft | 443 kts | 172° |
| 2026-04-14 06:52 | 48.64172 | 21.74470 | 35142 ft | 444 kts | 172° |
| 2026-04-14 06:53 | 48.58073 | 21.75891 | 35141 ft | 443 kts | 172° |
| 2026-04-14 06:53 | 48.51992 | 21.77293 | 35140 ft | 444 kts | 172° |
| 2026-04-14 06:54 | 48.45937 | 21.78674 | 35136 ft | 443 kts | 172° |
| 2026-04-14 06:54 | 48.39858 | 21.80051 | 35139 ft | 442 kts | 172° |
| 2026-04-14 06:55 | 48.33753 | 21.81426 | 35135 ft | 442 kts | 172° |
| 2026-04-14 06:55 | 48.27684 | 21.82824 | 35135 ft | 442 kts | 169° |
| 2026-04-14 06:56 | 48.21909 | 21.85661 | 35134 ft | 442 kts | 151° |
| 2026-04-14 06:56 | 48.16998 | 21.91174 | 35131 ft | 444 kts | 139° |
| 2026-04-14 06:57 | 48.12471 | 21.97490 | 35131 ft | 444 kts | 136° |
| 2026-04-14 06:57 | 48.08045 | 22.03871 | 35130 ft | 445 kts | 136° |
| 2026-04-14 06:58 | 48.03589 | 22.10254 | 35131 ft | 445 kts | 137° |
| 2026-04-14 06:58 | 47.99113 | 22.16600 | 35131 ft | 444 kts | 137° |
| 2026-04-14 06:59 | 47.94639 | 22.22899 | 35139 ft | 444 kts | 137° |
| 2026-04-14 06:59 | 47.90147 | 22.29191 | 35132 ft | 443 kts | 137° |
| 2026-04-14 07:00 | 47.85650 | 22.35471 | 35137 ft | 444 kts | 137° |
| 2026-04-14 07:00 | 47.81155 | 22.41731 | 35131 ft | 444 kts | 137° |
| 2026-04-14 07:01 | 47.76878 | 22.48350 | 35133 ft | 446 kts | 131° |
| 2026-04-14 07:01 | 47.72979 | 22.55446 | 35139 ft | 445 kts | 129° |
| 2026-04-14 07:02 | 47.69126 | 22.62665 | 35138 ft | 445 kts | 128° |
| 2026-04-14 07:02 | 47.65271 | 22.69804 | 35139 ft | 444 kts | 130° |
| 2026-04-14 07:03 | 47.61377 | 22.76921 | 35140 ft | 445 kts | 130° |
| 2026-04-14 07:03 | 47.57468 | 22.84003 | 35141 ft | 446 kts | 130° |
| 2026-04-14 07:04 | 47.53548 | 22.91072 | 35137 ft | 446 kts | 130° |
| 2026-04-14 07:04 | 47.49607 | 22.98154 | 35143 ft | 446 kts | 130° |
| 2026-04-14 07:05 | 47.45689 | 23.05176 | 35139 ft | 445 kts | 130° |
| 2026-04-14 07:05 | 47.41745 | 23.12225 | 35142 ft | 447 kts | 130° |
| 2026-04-14 07:06 | 47.37803 | 23.19252 | 35142 ft | 446 kts | 130° |
| 2026-04-14 07:06 | 47.33850 | 23.26282 | 35140 ft | 447 kts | 130° |
| 2026-04-14 07:07 | 47.29876 | 23.33330 | 35134 ft | 447 kts | 130° |
| 2026-04-14 07:07 | 47.25912 | 23.40342 | 35138 ft | 448 kts | 130° |
| 2026-04-14 07:08 | 47.21927 | 23.47371 | 35132 ft | 448 kts | 130° |
| 2026-04-14 07:08 | 47.17949 | 23.54372 | 35134 ft | 449 kts | 130° |
| 2026-04-14 07:09 | 47.13944 | 23.61401 | 35139 ft | 448 kts | 130° |
| 2026-04-14 07:09 | 47.09986 | 23.68445 | 35138 ft | 446 kts | 129° |
| 2026-04-14 07:10 | 47.06198 | 23.75586 | 35140 ft | 447 kts | 128° |
| 2026-04-14 07:10 | 47.02418 | 23.82795 | 35143 ft | 449 kts | 128° |
| 2026-04-14 07:11 | 46.98581 | 23.90063 | 35149 ft | 450 kts | 128° |
| 2026-04-14 07:11 | 46.94767 | 23.97236 | 35160 ft | 451 kts | 128° |
| 2026-04-14 07:12 | 46.90900 | 24.04471 | 35160 ft | 451 kts | 128° |
| 2026-04-14 07:12 | 46.87060 | 24.11627 | 35160 ft | 451 kts | 128° |
| 2026-04-14 07:13 | 46.83193 | 24.18813 | 35161 ft | 451 kts | 128° |
| 2026-04-14 07:13 | 46.79347 | 24.25939 | 35163 ft | 449 kts | 128° |
| 2026-04-14 07:14 | 46.75460 | 24.33122 | 35165 ft | 450 kts | 128° |
| 2026-04-14 07:14 | 46.71602 | 24.40235 | 35171 ft | 450 kts | 128° |
| 2026-04-14 07:15 | 46.67727 | 24.47358 | 35171 ft | 452 kts | 128° |
| 2026-04-14 07:15 | 46.63813 | 24.54534 | 35167 ft | 452 kts | 128° |
| 2026-04-14 07:16 | 46.59924 | 24.61648 | 35171 ft | 452 kts | 129° |
| 2026-04-14 07:16 | 46.56031 | 24.68749 | 35172 ft | 451 kts | 129° |
| 2026-04-14 07:17 | 46.52110 | 24.75885 | 35168 ft | 452 kts | 129° |
| 2026-04-14 07:17 | 46.48204 | 24.82974 | 35168 ft | 452 kts | 129° |
| 2026-04-14 07:18 | 46.44275 | 24.90087 | 35168 ft | 453 kts | 129° |
| 2026-04-14 07:18 | 46.40351 | 24.97173 | 35164 ft | 454 kts | 129° |
| 2026-04-14 07:19 | 46.36413 | 25.04264 | 35167 ft | 454 kts | 129° |
| 2026-04-14 07:19 | 46.32469 | 25.11350 | 35174 ft | 454 kts | 129° |
| 2026-04-14 07:20 | 46.28487 | 25.18484 | 35181 ft | 454 kts | 129° |
| 2026-04-14 07:20 | 46.24543 | 25.25532 | 35186 ft | 454 kts | 129° |
| 2026-04-14 07:21 | 46.20578 | 25.32603 | 35188 ft | 454 kts | 129° |
| 2026-04-14 07:21 | 46.16608 | 25.39661 | 35187 ft | 454 kts | 129° |
| 2026-04-14 07:22 | 46.12656 | 25.46671 | 35182 ft | 455 kts | 129° |
| 2026-04-14 07:22 | 46.08673 | 25.53716 | 35176 ft | 455 kts | 129° |
| 2026-04-14 07:23 | 46.04676 | 25.60769 | 35176 ft | 456 kts | 129° |
| 2026-04-14 07:23 | 46.00671 | 25.67819 | 35180 ft | 455 kts | 130° |
| 2026-04-14 07:24 | 45.96683 | 25.74823 | 35196 ft | 456 kts | 130° |
| 2026-04-14 07:24 | 45.92678 | 25.81836 | 35193 ft | 455 kts | 130° |
| 2026-04-14 07:25 | 45.88662 | 25.88850 | 35199 ft | 455 kts | 130° |
| 2026-04-14 07:25 | 45.84652 | 25.95839 | 35200 ft | 457 kts | 130° |
| 2026-04-14 07:26 | 45.80604 | 26.02873 | 35202 ft | 457 kts | 130° |
| 2026-04-14 07:26 | 45.76573 | 26.09864 | 35191 ft | 458 kts | 130° |
| 2026-04-14 07:27 | 45.72493 | 26.16920 | 35183 ft | 459 kts | 130° |
| 2026-04-14 07:27 | 45.68428 | 26.23931 | 35192 ft | 461 kts | 130° |
| 2026-04-14 07:28 | 45.64345 | 26.30956 | 35198 ft | 461 kts | 130° |
| 2026-04-14 07:28 | 45.60266 | 26.37957 | 35209 ft | 461 kts | 130° |
| 2026-04-14 07:29 | 45.56155 | 26.44996 | 35202 ft | 461 kts | 130° |
| 2026-04-14 07:29 | 45.52046 | 26.52012 | 35209 ft | 463 kts | 130° |
| 2026-04-14 07:30 | 45.47830 | 26.58820 | 35225 ft | 461 kts | 135° |
| 2026-04-14 07:30 | 45.43152 | 26.65048 | 35241 ft | 461 kts | 140° |
| 2026-04-14 07:31 | 45.38351 | 26.71108 | 35267 ft | 462 kts | 140° |
| 2026-04-14 07:31 | 45.33569 | 26.77159 | 35274 ft | 462 kts | 140° |
| 2026-04-14 07:32 | 45.28774 | 26.83279 | 35287 ft | 464 kts | 139° |
| 2026-04-14 07:32 | 45.24027 | 26.89373 | 35289 ft | 464 kts | 139° |
| 2026-04-14 07:33 | 45.19246 | 26.95520 | 35288 ft | 464 kts | 139° |
| 2026-04-14 07:33 | 45.14483 | 27.01638 | 35293 ft | 464 kts | 139° |
| 2026-04-14 07:34 | 45.04939 | 27.13863 | 35297 ft | 463 kts | 139° |
| 2026-04-14 07:35 | 45.00160 | 27.19963 | 35297 ft | 465 kts | 139° |
| 2026-04-14 07:35 | 44.95374 | 27.26056 | 35301 ft | 465 kts | 139° |
| 2026-04-14 07:36 | 44.90556 | 27.32176 | 35303 ft | 466 kts | 139° |
| 2026-04-14 07:36 | 44.85735 | 27.38288 | 35303 ft | 467 kts | 139° |
| 2026-04-14 07:37 | 44.80938 | 27.44353 | 35302 ft | 466 kts | 139° |
| 2026-04-14 07:37 | 44.76105 | 27.50449 | 35299 ft | 468 kts | 140° |
| 2026-04-14 07:38 | 44.71269 | 27.56533 | 35307 ft | 468 kts | 140° |
| 2026-04-14 07:38 | 44.66420 | 27.62618 | 35309 ft | 468 kts | 140° |
| 2026-04-14 07:39 | 44.61582 | 27.68677 | 35305 ft | 470 kts | 140° |
| 2026-04-14 07:39 | 44.56708 | 27.74769 | 35310 ft | 469 kts | 140° |
| 2026-04-14 07:40 | 44.51855 | 27.80820 | 35311 ft | 470 kts | 141° |
| 2026-04-14 07:40 | 44.46949 | 27.86922 | 35309 ft | 470 kts | 141° |
| 2026-04-14 07:41 | 44.42085 | 27.92958 | 35314 ft | 472 kts | 141° |
| 2026-04-14 07:41 | 44.37172 | 27.99039 | 35314 ft | 472 kts | 141° |
| 2026-04-14 07:42 | 44.32270 | 28.05093 | 35315 ft | 472 kts | 141° |
| 2026-04-14 07:42 | 44.27342 | 28.11165 | 35320 ft | 474 kts | 141° |
| 2026-04-14 07:43 | 44.22413 | 28.17224 | 35319 ft | 473 kts | 141° |
| 2026-04-14 07:43 | 44.17493 | 28.23257 | 35322 ft | 475 kts | 141° |
| 2026-04-14 07:44 | 44.12525 | 28.29336 | 35324 ft | 476 kts | 141° |
| 2026-04-14 07:44 | 44.07567 | 28.35388 | 35321 ft | 475 kts | 141° |
| 2026-04-14 07:45 | 44.02604 | 28.41432 | 35319 ft | 476 kts | 141° |
| 2026-04-14 07:45 | 43.97650 | 28.47450 | 35313 ft | 477 kts | 141° |
| 2026-04-14 07:46 | 43.92657 | 28.53503 | 35319 ft | 477 kts | 141° |
| 2026-04-14 07:46 | 43.87667 | 28.59537 | 35314 ft | 477 kts | 141° |
| 2026-04-14 07:47 | 43.82661 | 28.65578 | 35319 ft | 479 kts | 142° |
| 2026-04-14 07:47 | 43.77657 | 28.71605 | 35325 ft | 479 kts | 142° |
| 2026-04-14 07:48 | 43.72639 | 28.77662 | 35321 ft | 480 kts | 140° |
| 2026-04-14 07:48 | 43.68063 | 28.84347 | 35322 ft | 485 kts | 131° |
| 2026-04-14 07:49 | 43.63976 | 28.91799 | 35317 ft | 486 kts | 127° |
| 2026-04-14 07:49 | 43.60086 | 28.99395 | 35309 ft | 486 kts | 127° |
| 2026-04-14 07:50 | 43.56204 | 29.06980 | 35314 ft | 488 kts | 127° |
| 2026-04-14 07:50 | 43.52262 | 29.14566 | 35319 ft | 489 kts | 127° |
| 2026-04-14 07:51 | 43.48264 | 29.22171 | 35320 ft | 489 kts | 128° |
| 2026-04-14 07:51 | 43.44270 | 29.29722 | 35318 ft | 489 kts | 127° |
| 2026-04-14 07:52 | 43.40279 | 29.37240 | 35318 ft | 492 kts | 127° |
| 2026-04-14 07:52 | 43.36253 | 29.44803 | 35318 ft | 492 kts | 128° |
| 2026-04-14 07:53 | 43.32215 | 29.52369 | 35318 ft | 493 kts | 128° |
| 2026-04-14 07:53 | 43.28178 | 29.59917 | 35321 ft | 490 kts | 128° |
| 2026-04-14 07:54 | 43.24141 | 29.67443 | 35319 ft | 493 kts | 128° |
| 2026-04-14 07:54 | 43.20069 | 29.75019 | 35320 ft | 493 kts | 128° |
| 2026-04-14 07:55 | 43.16014 | 29.82541 | 35320 ft | 493 kts | 128° |
| 2026-04-14 07:55 | 43.11958 | 29.90044 | 35318 ft | 493 kts | 128° |
| 2026-04-14 07:56 | 43.07856 | 29.97612 | 35318 ft | 494 kts | 128° |
| 2026-04-14 07:56 | 43.03792 | 30.05092 | 35316 ft | 495 kts | 128° |
| 2026-04-14 07:57 | 42.99663 | 30.12671 | 35324 ft | 496 kts | 128° |
| 2026-04-14 07:57 | 42.95560 | 30.20185 | 35335 ft | 497 kts | 128° |
| 2026-04-14 07:58 | 42.91445 | 30.27702 | 35336 ft | 498 kts | 128° |
| 2026-04-14 07:58 | 42.87286 | 30.35282 | 35336 ft | 498 kts | 128° |
| 2026-04-14 07:59 | 42.83148 | 30.42803 | 35332 ft | 499 kts | 128° |
| 2026-04-14 07:59 | 42.78998 | 30.50326 | 35332 ft | 500 kts | 128° |
| 2026-04-14 08:00 | 42.75095 | 30.58131 | 35334 ft | 502 kts | 118° |
| 2026-04-14 08:00 | 42.73775 | 30.62483 | 35332 ft | 502 kts | 105° |
| 2026-04-14 08:00 | 42.72975 | 30.67108 | 35338 ft | 502 kts | 100° |
| 2026-04-14 08:01 | 42.71912 | 30.76448 | 35328 ft | 500 kts | 96° |
| 2026-04-14 08:01 | 42.71066 | 30.85802 | 35329 ft | 500 kts | 95° |
| 2026-04-14 08:02 | 42.70211 | 30.95093 | 35329 ft | 500 kts | 95° |
| 2026-04-14 08:02 | 42.69291 | 31.04439 | 35324 ft | 500 kts | 95° |
| 2026-04-14 08:03 | 42.68326 | 31.13821 | 35326 ft | 501 kts | 96° |
| 2026-04-14 08:03 | 42.67351 | 31.23107 | 35321 ft | 501 kts | 96° |
| 2026-04-14 08:04 | 42.66354 | 31.32489 | 35322 ft | 502 kts | 96° |
| 2026-04-14 08:04 | 42.65353 | 31.41816 | 35326 ft | 501 kts | 96° |
| 2026-04-14 08:05 | 42.64347 | 31.51137 | 35327 ft | 501 kts | 96° |
| 2026-04-14 08:05 | 42.63331 | 31.60463 | 35329 ft | 500 kts | 96° |
| 2026-04-14 08:06 | 42.62309 | 31.69783 | 35323 ft | 501 kts | 96° |
| 2026-04-14 08:06 | 42.61285 | 31.79039 | 35318 ft | 499 kts | 96° |
| 2026-04-14 08:07 | 42.60245 | 31.88386 | 35318 ft | 499 kts | 96° |
| 2026-04-14 08:07 | 42.59201 | 31.97699 | 35317 ft | 500 kts | 96° |
| 2026-04-14 08:08 | 42.58153 | 32.07025 | 35319 ft | 500 kts | 96° |
| 2026-04-14 08:08 | 42.57105 | 32.16327 | 35318 ft | 501 kts | 96° |
| 2026-04-14 08:09 | 42.56039 | 32.25634 | 35321 ft | 502 kts | 96° |
| 2026-04-14 08:09 | 42.54960 | 32.34955 | 35325 ft | 502 kts | 96° |
| 2026-04-14 08:10 | 42.53879 | 32.44233 | 35324 ft | 502 kts | 96° |
| 2026-04-14 08:10 | 42.52780 | 32.53592 | 35324 ft | 501 kts | 96° |
| 2026-04-14 08:11 | 42.51687 | 32.62857 | 35325 ft | 503 kts | 96° |
| 2026-04-14 08:11 | 42.50577 | 32.72184 | 35327 ft | 503 kts | 96° |
| 2026-04-14 08:12 | 42.49463 | 32.81479 | 35327 ft | 502 kts | 96° |
| 2026-04-14 08:12 | 42.48333 | 32.90848 | 35327 ft | 504 kts | 96° |
| 2026-04-14 08:13 | 42.47201 | 33.00158 | 35328 ft | 504 kts | 96° |
| 2026-04-14 08:13 | 42.46067 | 33.09428 | 35327 ft | 502 kts | 96° |
| 2026-04-14 08:14 | 42.44914 | 33.18781 | 35327 ft | 504 kts | 96° |
| 2026-04-14 08:14 | 42.43757 | 33.28101 | 35329 ft | 505 kts | 96° |
| 2026-04-14 08:15 | 42.42594 | 33.37398 | 35327 ft | 505 kts | 96° |
| 2026-04-14 08:15 | 42.41417 | 33.46743 | 35328 ft | 507 kts | 96° |
| 2026-04-14 08:16 | 42.40229 | 33.56119 | 35332 ft | 506 kts | 96° |
| 2026-04-14 08:16 | 42.39034 | 33.65487 | 35337 ft | 506 kts | 97° |
| 2026-04-14 08:17 | 42.37838 | 33.74794 | 35339 ft | 508 kts | 96° |
| 2026-04-14 08:17 | 42.36631 | 33.84135 | 35342 ft | 507 kts | 96° |
| 2026-04-14 08:18 | 42.35406 | 33.93541 | 35339 ft | 508 kts | 96° |
| 2026-04-14 08:18 | 42.34187 | 34.02885 | 35336 ft | 508 kts | 96° |
| 2026-04-14 08:19 | 42.32951 | 34.12308 | 35331 ft | 510 kts | 96° |
| 2026-04-14 08:19 | 42.31715 | 34.21659 | 35331 ft | 509 kts | 96° |
| 2026-04-14 08:20 | 42.30469 | 34.31016 | 35330 ft | 510 kts | 96° |
| 2026-04-14 08:20 | 42.29207 | 34.40438 | 35338 ft | 511 kts | 96° |
| 2026-04-14 08:21 | 42.27940 | 34.49823 | 35337 ft | 511 kts | 96° |
| 2026-04-14 08:21 | 42.26656 | 34.59248 | 35338 ft | 511 kts | 96° |
| 2026-04-14 08:22 | 42.25372 | 34.68618 | 35327 ft | 513 kts | 97° |
| 2026-04-14 08:22 | 42.24068 | 34.78106 | 35324 ft | 515 kts | 97° |
| 2026-04-14 08:23 | 42.22760 | 34.87542 | 35329 ft | 515 kts | 97° |
| 2026-04-14 08:23 | 42.21435 | 34.97020 | 35326 ft | 517 kts | 97° |
| 2026-04-14 08:24 | 42.20101 | 35.06502 | 35335 ft | 518 kts | 97° |
| 2026-04-14 08:24 | 42.18751 | 35.16021 | 35323 ft | 516 kts | 97° |
| 2026-04-14 08:25 | 42.17403 | 35.25490 | 35335 ft | 520 kts | 97° |
| 2026-04-14 08:25 | 42.16034 | 35.35025 | 35331 ft | 518 kts | 97° |
| 2026-04-14 08:26 | 42.14668 | 35.44507 | 35333 ft | 520 kts | 97° |
| 2026-04-14 08:26 | 42.13285 | 35.54062 | 35332 ft | 520 kts | 97° |
| 2026-04-14 08:27 | 42.11903 | 35.63565 | 35343 ft | 521 kts | 97° |
| 2026-04-14 08:27 | 42.10503 | 35.73126 | 35329 ft | 520 kts | 97° |
| 2026-04-14 08:28 | 42.09105 | 35.82613 | 35337 ft | 522 kts | 97° |
| 2026-04-14 08:28 | 42.07695 | 35.92135 | 35329 ft | 523 kts | 98° |
| 2026-04-14 08:29 | 42.06263 | 36.01745 | 35338 ft | 524 kts | 97° |
| 2026-04-14 08:29 | 42.04820 | 36.11343 | 35319 ft | 523 kts | 97° |
| 2026-04-14 08:30 | 42.03381 | 36.20880 | 35343 ft | 526 kts | 97° |
| 2026-04-14 08:30 | 42.01918 | 36.30506 | 35334 ft | 525 kts | 97° |
| 2026-04-14 08:31 | 42.00454 | 36.40084 | 35319 ft | 527 kts | 97° |
| 2026-04-14 08:31 | 41.98242 | 36.54460 | 35339 ft | 527 kts | 97° |
| 2026-04-14 08:32 | 41.96757 | 36.64036 | 35330 ft | 526 kts | 97° |
| 2026-04-14 08:32 | 41.95255 | 36.73676 | 35329 ft | 529 kts | 98° |
| 2026-04-14 08:33 | 41.93747 | 36.83263 | 35333 ft | 526 kts | 98° |
| 2026-04-14 08:33 | 41.92233 | 36.92859 | 35332 ft | 527 kts | 98° |
| 2026-04-14 08:34 | 41.90824 | 37.02482 | 35324 ft | 524 kts | 94° |
| 2026-04-14 08:34 | 41.90149 | 37.12109 | 35303 ft | 519 kts | 88° |
| 2026-04-14 08:35 | 41.89944 | 37.21721 | 35328 ft | 519 kts | 85° |
| 2026-04-14 08:35 | 41.89882 | 37.31395 | 35310 ft | 521 kts | 85° |
| 2026-04-14 08:36 | 41.89799 | 37.41076 | 35318 ft | 519 kts | 85° |
| 2026-04-14 08:36 | 41.89672 | 37.50713 | 35308 ft | 520 kts | 85° |
| 2026-04-14 08:37 | 41.89513 | 37.60383 | 35297 ft | 518 kts | 86° |
| 2026-04-14 08:37 | 41.89337 | 37.70020 | 35297 ft | 521 kts | 87° |
| 2026-04-14 08:38 | 41.89146 | 37.79684 | 35309 ft | 520 kts | 87° |
| 2026-04-14 08:38 | 41.88948 | 37.89417 | 35289 ft | 523 kts | 87° |
| 2026-04-14 08:39 | 41.88743 | 37.99131 | 35330 ft | 523 kts | 88° |
| 2026-04-14 08:39 | 41.88528 | 38.08840 | 35303 ft | 521 kts | 87° |
| 2026-04-14 08:40 | 41.88310 | 38.18541 | 35289 ft | 526 kts | 87° |
| 2026-04-14 08:40 | 41.88081 | 38.28242 | 35305 ft | 521 kts | 88° |
| 2026-04-14 08:41 | 41.87844 | 38.37964 | 35316 ft | 521 kts | 87° |
| 2026-04-14 08:41 | 41.87598 | 38.47612 | 35314 ft | 522 kts | 87° |
| 2026-04-14 08:42 | 41.87342 | 38.57283 | 35320 ft | 520 kts | 87° |
| 2026-04-14 08:42 | 41.87080 | 38.66987 | 35286 ft | 522 kts | 87° |
| 2026-04-14 08:43 | 41.86809 | 38.76638 | 35308 ft | 521 kts | 88° |
| 2026-04-14 08:43 | 41.86533 | 38.86311 | 35315 ft | 523 kts | 88° |
| 2026-04-14 08:44 | 41.86241 | 38.96025 | 35318 ft | 520 kts | 87° |
| 2026-04-14 08:44 | 41.85947 | 39.05693 | 35297 ft | 519 kts | 88° |
| 2026-04-14 08:45 | 41.85646 | 39.15374 | 35458 ft | 524 kts | 88° |
| 2026-04-14 08:45 | 41.85493 | 39.20200 | 35353 ft | 523 kts | 88° |
| 2026-04-14 08:45 | 41.85334 | 39.25069 | 35318 ft | 520 kts | 88° |
| 2026-04-14 08:46 | 41.85020 | 39.34631 | 35316 ft | 519 kts | 88° |
| 2026-04-14 08:46 | 41.84698 | 39.44280 | 35306 ft | 520 kts | 88° |
| 2026-04-14 08:47 | 41.84363 | 39.53954 | 35324 ft | 521 kts | 88° |
| 2026-04-14 08:47 | 41.84020 | 39.63563 | 35333 ft | 518 kts | 88° |
| 2026-04-14 08:48 | 41.83673 | 39.73164 | 35294 ft | 519 kts | 88° |
| 2026-04-14 08:48 | 41.83316 | 39.82769 | 35311 ft | 517 kts | 88° |
| 2026-04-14 08:49 | 41.82957 | 39.92377 | 35332 ft | 517 kts | 89° |
| 2026-04-14 08:49 | 41.82592 | 40.01938 | 35326 ft | 521 kts | 89° |
| 2026-04-14 08:50 | 41.82207 | 40.11617 | 35312 ft | 516 kts | 89° |
| 2026-04-14 08:50 | 41.81823 | 40.21149 | 35322 ft | 517 kts | 89° |
| 2026-04-14 08:51 | 41.81424 | 40.30789 | 35313 ft | 518 kts | 89° |
| 2026-04-14 08:51 | 41.81022 | 40.40311 | 35324 ft | 515 kts | 89° |
| 2026-04-14 08:52 | 41.80613 | 40.49886 | 35295 ft | 516 kts | 90° |
| 2026-04-14 08:52 | 41.80191 | 40.59464 | 35320 ft | 515 kts | 90° |
| 2026-04-14 08:53 | 41.79762 | 40.68956 | 35300 ft | 514 kts | 90° |
| 2026-04-14 08:53 | 41.79303 | 40.78469 | 35305 ft | 515 kts | 91° |
| 2026-04-14 08:54 | 41.78830 | 40.88021 | 35296 ft | 514 kts | 90° |
| 2026-04-14 08:54 | 41.78351 | 40.97510 | 35326 ft | 513 kts | 91° |
| 2026-04-14 08:55 | 41.77864 | 41.07032 | 35293 ft | 515 kts | 91° |
| 2026-04-14 08:55 | 41.77369 | 41.16533 | 35304 ft | 512 kts | 91° |
| 2026-04-14 08:56 | 41.76873 | 41.25941 | 35316 ft | 511 kts | 91° |
| 2026-04-14 08:56 | 41.76368 | 41.35439 | 35298 ft | 514 kts | 91° |
| 2026-04-14 08:57 | 41.75851 | 41.44929 | 35297 ft | 511 kts | 91° |
| 2026-04-14 08:57 | 41.75332 | 41.54361 | 35299 ft | 511 kts | 91° |
| 2026-04-14 08:58 | 41.74800 | 41.63819 | 35289 ft | 508 kts | 91° |
| 2026-04-14 08:58 | 41.74265 | 41.73210 | 35297 ft | 510 kts | 92° |
| 2026-04-14 08:59 | 41.73721 | 41.82638 | 35283 ft | 510 kts | 92° |
| 2026-04-14 08:59 | 41.73167 | 41.92113 | 35253 ft | 511 kts | 92° |
| 2026-04-14 09:00 | 41.72609 | 42.01523 | 35225 ft | 510 kts | 93° |
| 2026-04-14 09:00 | 41.72048 | 42.10882 | 35185 ft | 507 kts | 93° |
| 2026-04-14 09:01 | 41.71475 | 42.20303 | 35171 ft | 510 kts | 92° |
| 2026-04-14 09:01 | 41.70890 | 42.29765 | 35131 ft | 510 kts | 92° |
| 2026-04-14 09:02 | 41.70299 | 42.39138 | 35112 ft | 508 kts | 93° |
| 2026-04-14 09:02 | 41.69700 | 42.48573 | 35097 ft | 511 kts | 93° |
| 2026-04-14 09:03 | 41.69093 | 42.57972 | 35104 ft | 510 kts | 93° |
| 2026-04-14 09:03 | 41.68477 | 42.67408 | 35104 ft | 510 kts | 94° |
| 2026-04-14 09:04 | 41.67860 | 42.76791 | 35107 ft | 510 kts | 94° |
| 2026-04-14 09:04 | 41.67232 | 42.86216 | 35137 ft | 511 kts | 94° |
| 2026-04-14 09:05 | 41.66594 | 42.95581 | 35126 ft | 507 kts | 94° |
| 2026-04-14 09:05 | 41.65946 | 43.04965 | 35130 ft | 511 kts | 94° |
| 2026-04-14 09:06 | 41.65291 | 43.14382 | 35167 ft | 507 kts | 94° |
| 2026-04-14 09:06 | 41.64630 | 43.23792 | 35174 ft | 509 kts | 95° |
| 2026-04-14 09:07 | 41.63963 | 43.33155 | 35174 ft | 510 kts | 94° |
| 2026-04-14 09:07 | 41.63291 | 43.42465 | 35151 ft | 506 kts | 94° |
| 2026-04-14 09:08 | 41.62608 | 43.51831 | 35126 ft | 506 kts | 94° |
| 2026-04-14 09:08 | 41.61924 | 43.61155 | 35092 ft | 508 kts | 94° |
| 2026-04-14 09:09 | 41.61232 | 43.70457 | 35054 ft | 505 kts | 95° |
| 2026-04-14 09:09 | 41.60530 | 43.79820 | 35037 ft | 509 kts | 95° |
| 2026-04-14 09:10 | 41.59829 | 43.89129 | 35059 ft | 507 kts | 95° |
| 2026-04-14 09:10 | 41.59118 | 43.98459 | 35043 ft | 508 kts | 95° |
| 2026-04-14 09:11 | 41.58393 | 44.07827 | 35064 ft | 505 kts | 95° |
| 2026-04-14 09:11 | 41.57650 | 44.17107 | 35115 ft | 507 kts | 96° |
| 2026-04-14 09:12 | 41.56393 | 44.26323 | 35160 ft | 508 kts | 104° |
| 2026-04-14 09:12 | 41.54385 | 44.35353 | 35151 ft | 505 kts | 109° |
| 2026-04-14 09:13 | 41.52143 | 44.44180 | 35179 ft | 504 kts | 109° |
| 2026-04-14 09:13 | 41.49862 | 44.53042 | 35190 ft | 508 kts | 110° |
| 2026-04-14 09:14 | 41.47602 | 44.61907 | 35179 ft | 507 kts | 109° |
| 2026-04-14 09:14 | 41.45354 | 44.70781 | 35195 ft | 511 kts | 110° |
| 2026-04-14 09:15 | 41.43093 | 44.79732 | 35180 ft | 506 kts | 110° |
| 2026-04-14 09:15 | 41.40847 | 44.88617 | 35182 ft | 511 kts | 110° |
| 2026-04-14 09:16 | 41.38588 | 44.97529 | 35157 ft | 510 kts | 110° |
| 2026-04-14 09:16 | 41.36324 | 45.06433 | 35162 ft | 511 kts | 110° |
| 2026-04-14 09:17 | 41.34058 | 45.15326 | 35175 ft | 509 kts | 110° |
| 2026-04-14 09:17 | 41.31774 | 45.24247 | 35163 ft | 512 kts | 110° |
| 2026-04-14 09:18 | 41.29491 | 45.33112 | 35173 ft | 511 kts | 110° |
| 2026-04-14 09:18 | 41.27171 | 45.42084 | 35141 ft | 510 kts | 110° |
| 2026-04-14 09:19 | 41.24887 | 45.50893 | 35161 ft | 510 kts | 110° |
| 2026-04-14 09:19 | 41.22573 | 45.59789 | 35165 ft | 511 kts | 110° |
| 2026-04-14 09:20 | 41.20244 | 45.68705 | 35143 ft | 509 kts | 111° |
| 2026-04-14 09:20 | 41.17937 | 45.77479 | 35163 ft | 509 kts | 111° |
| 2026-04-14 09:21 | 41.15596 | 45.86356 | 35158 ft | 509 kts | 111° |
| 2026-04-14 09:21 | 41.13265 | 45.95161 | 35173 ft | 509 kts | 111° |
| 2026-04-14 09:22 | 41.10913 | 46.03997 | 35185 ft | 509 kts | 111° |
| 2026-04-14 09:22 | 41.08554 | 46.12827 | 35161 ft | 513 kts | 110° |
| 2026-04-14 09:23 | 41.06183 | 46.21681 | 35182 ft | 511 kts | 111° |
| 2026-04-14 09:23 | 41.03806 | 46.30520 | 35190 ft | 509 kts | 111° |
| 2026-04-14 09:24 | 41.01452 | 46.39304 | 35185 ft | 509 kts | 110° |
| 2026-04-14 09:24 | 40.99090 | 46.48128 | 35181 ft | 511 kts | 110° |
| 2026-04-14 09:25 | 40.96728 | 46.56942 | 35175 ft | 511 kts | 110° |
| 2026-04-14 09:25 | 40.94346 | 46.65798 | 35174 ft | 509 kts | 111° |
| 2026-04-14 09:26 | 40.91984 | 46.74564 | 35178 ft | 512 kts | 110° |
| 2026-04-14 09:26 | 40.90058 | 46.83640 | 35176 ft | 513 kts | 103° |
| 2026-04-14 09:27 | 40.88989 | 46.92877 | 35171 ft | 512 kts | 96° |
| 2026-04-14 09:27 | 40.88289 | 47.02230 | 35170 ft | 512 kts | 95° |
| 2026-04-14 09:28 | 40.87675 | 47.11571 | 35169 ft | 511 kts | 95° |
| 2026-04-14 09:28 | 40.87043 | 47.20844 | 35172 ft | 510 kts | 95° |
| 2026-04-14 09:29 | 40.86369 | 47.30157 | 35165 ft | 511 kts | 95° |
| 2026-04-14 09:29 | 40.85675 | 47.39404 | 35170 ft | 507 kts | 95° |
| 2026-04-14 09:30 | 40.84966 | 47.48611 | 35169 ft | 509 kts | 95° |
| 2026-04-14 09:30 | 40.84289 | 47.57879 | 35174 ft | 506 kts | 94° |
| 2026-04-14 09:31 | 40.83725 | 47.67120 | 35178 ft | 508 kts | 95° |
| 2026-04-14 09:31 | 40.83181 | 47.76339 | 35179 ft | 506 kts | 95° |
| 2026-04-14 09:32 | 40.82625 | 47.85549 | 35186 ft | 505 kts | 95° |
| 2026-04-14 09:33 | 40.81762 | 47.99341 | 35175 ft | 505 kts | 95° |
| 2026-04-14 09:33 | 40.81167 | 48.08562 | 35170 ft | 505 kts | 95° |
| 2026-04-14 09:34 | 40.80564 | 48.17753 | 35156 ft | 505 kts | 95° |
| 2026-04-14 09:34 | 40.79952 | 48.26926 | 35147 ft | 506 kts | 95° |
| 2026-04-14 09:35 | 40.79329 | 48.36150 | 35134 ft | 503 kts | 95° |
| 2026-04-14 09:35 | 40.78707 | 48.45284 | 35130 ft | 504 kts | 95° |
| 2026-04-14 09:36 | 40.78074 | 48.54458 | 35105 ft | 504 kts | 95° |
| 2026-04-14 09:36 | 40.77433 | 48.63675 | 35158 ft | 502 kts | 95° |
| 2026-04-14 09:36 | 40.77111 | 48.68258 | 35021 ft | 504 kts | 96° |
| 2026-04-14 09:37 | 40.76791 | 48.72794 | 35094 ft | 505 kts | 96° |
| 2026-04-14 09:37 | 40.76131 | 48.82037 | 35106 ft | 504 kts | 95° |
| 2026-04-14 09:38 | 40.75470 | 48.91194 | 35098 ft | 501 kts | 95° |
| 2026-04-14 09:38 | 40.74806 | 49.00277 | 35099 ft | 504 kts | 95° |
| 2026-04-14 09:39 | 40.74130 | 49.09438 | 35104 ft | 503 kts | 96° |
| 2026-04-14 09:39 | 40.73447 | 49.18603 | 35109 ft | 502 kts | 95° |
| 2026-04-14 09:40 | 40.72733 | 49.27664 | 35327 ft | 501 kts | 97° |
| 2026-04-14 09:40 | 40.72266 | 49.32196 | 35203 ft | 499 kts | 99° |
| 2026-04-14 09:40 | 40.71732 | 49.36702 | 35171 ft | 498 kts | 99° |
| 2026-04-14 09:41 | 40.70599 | 49.45674 | 35154 ft | 498 kts | 100° |
| 2026-04-14 09:41 | 40.69459 | 49.54669 | 35155 ft | 498 kts | 100° |
| 2026-04-14 09:42 | 40.68346 | 49.63590 | 35169 ft | 496 kts | 99° |
| 2026-04-14 09:42 | 40.67245 | 49.72526 | 35171 ft | 495 kts | 100° |
| 2026-04-14 09:43 | 40.66149 | 49.81437 | 35180 ft | 494 kts | 100° |
| 2026-04-14 09:43 | 40.65051 | 49.90345 | 35189 ft | 493 kts | 100° |
| 2026-04-14 09:44 | 40.63945 | 49.99251 | 35175 ft | 494 kts | 100° |
| 2026-04-14 09:44 | 40.62837 | 50.08150 | 35171 ft | 495 kts | 100° |
| 2026-04-14 09:45 | 40.61720 | 50.17034 | 35180 ft | 494 kts | 100° |
| 2026-04-14 09:45 | 40.60596 | 50.25905 | 35168 ft | 494 kts | 100° |
| 2026-04-14 09:46 | 40.59471 | 50.34742 | 35168 ft | 493 kts | 100° |
| 2026-04-14 09:46 | 40.58333 | 50.43627 | 35171 ft | 494 kts | 100° |
| 2026-04-14 09:47 | 40.57195 | 50.52453 | 35160 ft | 494 kts | 100° |
| 2026-04-14 09:47 | 40.56040 | 50.61360 | 35157 ft | 493 kts | 100° |
| 2026-04-14 09:48 | 40.54885 | 50.70206 | 35168 ft | 495 kts | 101° |
| 2026-04-14 09:48 | 40.53719 | 50.79082 | 35154 ft | 493 kts | 101° |
| 2026-04-14 09:49 | 40.52554 | 50.87897 | 35167 ft | 493 kts | 101° |
| 2026-04-14 09:49 | 40.51442 | 50.96711 | 35159 ft | 493 kts | 99° |
| 2026-04-14 09:50 | 40.50609 | 51.05656 | 35161 ft | 491 kts | 97° |
| 2026-04-14 09:50 | 40.49868 | 51.14524 | 35165 ft | 494 kts | 97° |
| 2026-04-14 09:51 | 40.49101 | 51.23435 | 35163 ft | 491 kts | 97° |
| 2026-04-14 09:51 | 40.48301 | 51.32318 | 35162 ft | 492 kts | 97° |
| 2026-04-14 09:52 | 40.47481 | 51.41168 | 35166 ft | 490 kts | 98° |
| 2026-04-14 09:52 | 40.46629 | 51.50026 | 35155 ft | 489 kts | 99° |
| 2026-04-14 09:53 | 40.45308 | 51.58704 | 35162 ft | 487 kts | 104° |
| 2026-04-14 09:53 | 40.43664 | 51.67319 | 35164 ft | 487 kts | 106° |
| 2026-04-14 09:54 | 40.42000 | 51.75874 | 35168 ft | 485 kts | 106° |
| 2026-04-14 09:54 | 40.40360 | 51.84445 | 35166 ft | 487 kts | 105° |
| 2026-04-14 09:55 | 40.38734 | 51.93071 | 35167 ft | 487 kts | 105° |
| 2026-04-14 09:55 | 40.37133 | 52.01613 | 35162 ft | 486 kts | 105° |
| 2026-04-14 09:56 | 40.35526 | 52.10197 | 35159 ft | 487 kts | 105° |
| 2026-04-14 09:56 | 40.33916 | 52.18776 | 35150 ft | 485 kts | 105° |
| 2026-04-14 09:57 | 40.32309 | 52.27298 | 35148 ft | 488 kts | 105° |
| 2026-04-14 09:57 | 40.30684 | 52.35876 | 35143 ft | 487 kts | 105° |
| 2026-04-14 09:58 | 40.29053 | 52.44448 | 35144 ft | 486 kts | 105° |
| 2026-04-14 09:58 | 40.27419 | 52.52996 | 35144 ft | 486 kts | 105° |
| 2026-04-14 09:59 | 40.25767 | 52.61608 | 35147 ft | 486 kts | 105° |
| 2026-04-14 09:59 | 40.24132 | 52.70118 | 35139 ft | 484 kts | 107° |
| 2026-04-14 10:00 | 40.22490 | 52.78625 | 35143 ft | 487 kts | 106° |
| 2026-04-14 10:00 | 40.20839 | 52.87152 | 35140 ft | 485 kts | 106° |
| 2026-04-14 10:01 | 40.19180 | 52.95683 | 35028 ft | 484 kts | 106° |
| 2026-04-14 10:01 | 40.17510 | 53.04225 | 35135 ft | 489 kts | 107° |
| 2026-04-14 10:02 | 40.15833 | 53.12774 | 35136 ft | 485 kts | 107° |
| 2026-04-14 10:02 | 40.14159 | 53.21265 | 35141 ft | 486 kts | 106° |
| 2026-04-14 10:03 | 40.12471 | 53.29787 | 35131 ft | 487 kts | 107° |
| 2026-04-14 10:03 | 40.10777 | 53.38309 | 35137 ft | 486 kts | 107° |
| 2026-04-14 10:04 | 40.09075 | 53.46837 | 35130 ft | 486 kts | 106° |
| 2026-04-14 10:04 | 40.07366 | 53.55363 | 35138 ft | 487 kts | 107° |
| 2026-04-14 10:05 | 40.05650 | 53.63888 | 35137 ft | 486 kts | 107° |
| 2026-04-14 10:05 | 40.03931 | 53.72394 | 35128 ft | 487 kts | 107° |
| 2026-04-14 10:06 | 40.02205 | 53.80888 | 35124 ft | 488 kts | 108° |
| 2026-04-14 10:06 | 40.00462 | 53.89439 | 35129 ft | 487 kts | 107° |
| 2026-04-14 10:07 | 39.98737 | 53.97872 | 35118 ft | 487 kts | 108° |
| 2026-04-14 10:07 | 39.96988 | 54.06384 | 35115 ft | 488 kts | 107° |
| 2026-04-14 10:08 | 39.95235 | 54.14882 | 35112 ft | 486 kts | 107° |
| 2026-04-14 10:08 | 39.93481 | 54.23351 | 35103 ft | 485 kts | 108° |
| 2026-04-14 10:09 | 39.91717 | 54.31833 | 35108 ft | 486 kts | 108° |
| 2026-04-14 10:09 | 39.89949 | 54.40302 | 35085 ft | 486 kts | 108° |
| 2026-04-14 10:10 | 39.88186 | 54.48709 | 35085 ft | 487 kts | 108° |
| 2026-04-14 10:10 | 39.86394 | 54.57169 | 35078 ft | 486 kts | 108° |
| 2026-04-14 10:11 | 39.84593 | 54.65619 | 35079 ft | 486 kts | 109° |
| 2026-04-14 10:11 | 39.82948 | 54.74100 | 35075 ft | 488 kts | 103° |
| 2026-04-14 10:12 | 39.82356 | 54.82880 | 35084 ft | 491 kts | 92° |
| 2026-04-14 10:12 | 39.82536 | 54.91766 | 35068 ft | 492 kts | 89° |
| 2026-04-14 10:13 | 39.82901 | 55.00622 | 35080 ft | 491 kts | 89° |
| 2026-04-14 10:13 | 39.83249 | 55.09438 | 35085 ft | 491 kts | 89° |
| 2026-04-14 10:14 | 39.83579 | 55.18311 | 35082 ft | 492 kts | 89° |
| 2026-04-14 10:14 | 39.83882 | 55.27144 | 35080 ft | 491 kts | 89° |
| 2026-04-14 10:15 | 39.84166 | 55.35991 | 35083 ft | 491 kts | 89° |
| 2026-04-14 10:15 | 39.84435 | 55.44817 | 35083 ft | 491 kts | 89° |
| 2026-04-14 10:16 | 39.84696 | 55.53661 | 35071 ft | 492 kts | 90° |
| 2026-04-14 10:16 | 39.84950 | 55.62513 | 35076 ft | 490 kts | 90° |
| 2026-04-14 10:17 | 39.85196 | 55.71321 | 35078 ft | 490 kts | 91° |
| 2026-04-14 10:17 | 39.85435 | 55.80106 | 35074 ft | 488 kts | 90° |
| 2026-04-14 10:18 | 39.85781 | 55.93306 | 35070 ft | 488 kts | 91° |
| 2026-04-14 10:18 | 39.86002 | 56.02052 | 35076 ft | 488 kts | 91° |
| 2026-04-14 10:19 | 39.86219 | 56.10892 | 35087 ft | 488 kts | 91° |
| 2026-04-14 10:19 | 39.86428 | 56.19677 | 35083 ft | 487 kts | 91° |
| 2026-04-14 10:20 | 39.86629 | 56.28434 | 35068 ft | 490 kts | 91° |
| 2026-04-14 10:20 | 39.86834 | 56.37256 | 35068 ft | 487 kts | 91° |
| 2026-04-14 10:21 | 39.87031 | 56.46000 | 35053 ft | 486 kts | 91° |
| 2026-04-14 10:21 | 39.87221 | 56.54813 | 35069 ft | 489 kts | 91° |
| 2026-04-14 10:22 | 39.87404 | 56.63619 | 35064 ft | 490 kts | 91° |
| 2026-04-14 10:22 | 39.87583 | 56.72456 | 35055 ft | 490 kts | 92° |
| 2026-04-14 10:23 | 39.87753 | 56.81275 | 35046 ft | 490 kts | 92° |
| 2026-04-14 10:23 | 39.87918 | 56.90128 | 35054 ft | 489 kts | 92° |
| 2026-04-14 10:24 | 39.88076 | 56.98965 | 35055 ft | 490 kts | 92° |
| 2026-04-14 10:24 | 39.88226 | 57.07803 | 35096 ft | 493 kts | 92° |
| 2026-04-14 10:25 | 39.88372 | 57.16653 | 35072 ft | 488 kts | 92° |
| 2026-04-14 10:25 | 39.88508 | 57.25466 | 35054 ft | 490 kts | 92° |
| 2026-04-14 10:26 | 39.88639 | 57.34244 | 35070 ft | 489 kts | 93° |
| 2026-04-14 10:26 | 39.88761 | 57.43122 | 35063 ft | 490 kts | 92° |
| 2026-04-14 10:27 | 39.88878 | 57.51929 | 35061 ft | 491 kts | 93° |
| 2026-04-14 10:27 | 39.88989 | 57.60803 | 35067 ft | 490 kts | 93° |
| 2026-04-14 10:28 | 39.89093 | 57.69644 | 35045 ft | 487 kts | 94° |
| 2026-04-14 10:28 | 39.89188 | 57.78405 | 35051 ft | 490 kts | 94° |
| 2026-04-14 10:29 | 39.89279 | 57.87283 | 35056 ft | 491 kts | 94° |
| 2026-04-14 10:29 | 39.89364 | 57.96112 | 35048 ft | 490 kts | 94° |
| 2026-04-14 10:30 | 39.89441 | 58.04983 | 35050 ft | 491 kts | 94° |
| 2026-04-14 10:30 | 39.89512 | 58.13802 | 35067 ft | 491 kts | 94° |
| 2026-04-14 10:31 | 39.89586 | 58.22644 | 35043 ft | 489 kts | 94° |
| 2026-04-14 10:31 | 39.89679 | 58.31467 | 35049 ft | 488 kts | 94° |
| 2026-04-14 10:32 | 39.89764 | 58.40254 | 35049 ft | 490 kts | 94° |
| 2026-04-14 10:32 | 39.89842 | 58.49089 | 35058 ft | 489 kts | 94° |
| 2026-04-14 10:33 | 39.89912 | 58.57911 | 35031 ft | 488 kts | 94° |
| 2026-04-14 10:33 | 39.89972 | 58.66735 | 35036 ft | 490 kts | 95° |
| 2026-04-14 10:34 | 39.90053 | 58.79989 | 35048 ft | 491 kts | 95° |
| 2026-04-14 10:35 | 39.90098 | 58.88810 | 35043 ft | 490 kts | 95° |
| 2026-04-14 10:35 | 39.90135 | 58.97687 | 35031 ft | 491 kts | 95° |
| 2026-04-14 10:36 | 39.90167 | 59.06523 | 35007 ft | 490 kts | 95° |
| 2026-04-14 10:36 | 39.90187 | 59.15311 | 35001 ft | 489 kts | 95° |
| 2026-04-14 10:37 | 39.90186 | 59.24165 | 35010 ft | 489 kts | 95° |
| 2026-04-14 10:37 | 39.90179 | 59.33004 | 35012 ft | 491 kts | 95° |
| 2026-04-14 10:38 | 39.90162 | 59.41811 | 35007 ft | 492 kts | 95° |
| 2026-04-14 10:38 | 39.90127 | 59.50657 | 35007 ft | 491 kts | 95° |
| 2026-04-14 10:39 | 39.90083 | 59.59572 | 35001 ft | 491 kts | 95° |
| 2026-04-14 10:39 | 39.90028 | 59.68420 | 34999 ft | 490 kts | 96° |
| 2026-04-14 10:40 | 39.89967 | 59.77233 | 35002 ft | 492 kts | 96° |
| 2026-04-14 10:40 | 39.89903 | 59.86099 | 34995 ft | 490 kts | 96° |
| 2026-04-14 10:41 | 39.89832 | 59.94946 | 34998 ft | 492 kts | 96° |
| 2026-04-14 10:41 | 39.89753 | 60.03892 | 34997 ft | 493 kts | 95° |
| 2026-04-14 10:42 | 39.89673 | 60.12730 | 34999 ft | 493 kts | 96° |
| 2026-04-14 10:42 | 39.89580 | 60.21631 | 34985 ft | 495 kts | 96° |
| 2026-04-14 10:43 | 39.89101 | 60.30501 | 34997 ft | 487 kts | 104° |
| 2026-04-14 10:43 | 39.87727 | 60.39031 | 34977 ft | 484 kts | 110° |
| 2026-04-14 10:44 | 39.86026 | 60.47438 | 34973 ft | 484 kts | 111° |
| 2026-04-14 10:44 | 39.84286 | 60.55902 | 34961 ft | 485 kts | 111° |
| 2026-04-14 10:45 | 39.82576 | 60.64345 | 34973 ft | 485 kts | 111° |
| 2026-04-14 10:45 | 39.80889 | 60.72813 | 34962 ft | 483 kts | 111° |
| 2026-04-14 10:46 | 39.79223 | 60.81208 | 34964 ft | 485 kts | 111° |
| 2026-04-14 10:46 | 39.77538 | 60.89692 | 34954 ft | 485 kts | 111° |
| 2026-04-14 10:47 | 39.75855 | 60.98150 | 34970 ft | 486 kts | 111° |
| 2026-04-14 10:47 | 39.74166 | 61.06612 | 34942 ft | 485 kts | 111° |
| 2026-04-14 10:48 | 39.72470 | 61.15070 | 34935 ft | 486 kts | 111° |
| 2026-04-14 10:48 | 39.70756 | 61.23573 | 34935 ft | 487 kts | 111° |
| 2026-04-14 10:49 | 39.69030 | 61.32098 | 34931 ft | 490 kts | 111° |
| 2026-04-14 10:49 | 39.67312 | 61.40558 | 34930 ft | 490 kts | 111° |
| 2026-04-14 10:50 | 39.65565 | 61.49118 | 34929 ft | 493 kts | 110° |
| 2026-04-14 10:50 | 39.63815 | 61.57666 | 34915 ft | 495 kts | 110° |
| 2026-04-14 10:51 | 39.62053 | 61.66249 | 34924 ft | 493 kts | 111° |
| 2026-04-14 10:51 | 39.60280 | 61.74837 | 34906 ft | 495 kts | 111° |
| 2026-04-14 10:52 | 39.58486 | 61.83477 | 34911 ft | 496 kts | 111° |
| 2026-04-14 10:52 | 39.56702 | 61.92052 | 34904 ft | 498 kts | 111° |
| 2026-04-14 10:53 | 39.54891 | 62.00708 | 34901 ft | 498 kts | 111° |
| 2026-04-14 10:53 | 39.53087 | 62.09298 | 34890 ft | 500 kts | 110° |
| 2026-04-14 10:54 | 39.51277 | 62.17894 | 34880 ft | 496 kts | 111° |
| 2026-04-14 10:54 | 39.49448 | 62.26536 | 34871 ft | 498 kts | 110° |
| 2026-04-14 10:55 | 39.47618 | 62.35151 | 34872 ft | 500 kts | 110° |
| 2026-04-14 10:55 | 39.45774 | 62.43805 | 34878 ft | 498 kts | 110° |
| 2026-04-14 10:56 | 39.43939 | 62.52391 | 34872 ft | 498 kts | 110° |
| 2026-04-14 10:56 | 39.42096 | 62.60975 | 34867 ft | 498 kts | 110° |
| 2026-04-14 10:57 | 39.40239 | 62.69575 | 34867 ft | 498 kts | 111° |
| 2026-04-14 10:57 | 39.38379 | 62.78147 | 34856 ft | 498 kts | 111° |
| 2026-04-14 10:58 | 39.36502 | 62.86779 | 34866 ft | 497 kts | 111° |
| 2026-04-14 10:58 | 39.34639 | 62.95313 | 34860 ft | 498 kts | 111° |
| 2026-04-14 10:59 | 39.32750 | 63.03930 | 34856 ft | 497 kts | 111° |
| 2026-04-14 10:59 | 39.30883 | 63.12413 | 34853 ft | 494 kts | 111° |
| 2026-04-14 11:00 | 39.28994 | 63.20950 | 34856 ft | 498 kts | 110° |
| 2026-04-14 11:00 | 39.27090 | 63.29527 | 34855 ft | 498 kts | 110° |
| 2026-04-14 11:01 | 39.25190 | 63.38065 | 34847 ft | 497 kts | 110° |
| 2026-04-14 11:01 | 39.23283 | 63.46607 | 34843 ft | 497 kts | 110° |
| 2026-04-14 11:02 | 39.21361 | 63.55166 | 34840 ft | 498 kts | 110° |
| 2026-04-14 11:02 | 39.19441 | 63.63687 | 34843 ft | 499 kts | 110° |
| 2026-04-14 11:03 | 39.17515 | 63.72211 | 34845 ft | 496 kts | 111° |
| 2026-04-14 11:03 | 39.15589 | 63.80700 | 34846 ft | 497 kts | 110° |
| 2026-04-14 11:04 | 39.13657 | 63.89190 | 34840 ft | 496 kts | 111° |
| 2026-04-14 11:04 | 39.11706 | 63.97722 | 34842 ft | 497 kts | 110° |
| 2026-04-14 11:05 | 39.09759 | 64.06200 | 34836 ft | 498 kts | 111° |
| 2026-04-14 11:05 | 39.07800 | 64.14703 | 34840 ft | 499 kts | 111° |
| 2026-04-14 11:06 | 39.05928 | 64.23223 | 34845 ft | 498 kts | 109° |
| 2026-04-14 11:06 | 39.04136 | 64.31821 | 34850 ft | 499 kts | 109° |
| 2026-04-14 11:07 | 39.02341 | 64.40459 | 34854 ft | 500 kts | 108° |
| 2026-04-14 11:07 | 39.00541 | 64.49031 | 34863 ft | 500 kts | 109° |
| 2026-04-14 11:08 | 38.98729 | 64.57576 | 34872 ft | 498 kts | 108° |
| 2026-04-14 11:08 | 38.96891 | 64.66167 | 34875 ft | 498 kts | 109° |
| 2026-04-14 11:09 | 38.95058 | 64.74690 | 34875 ft | 500 kts | 109° |
| 2026-04-14 11:09 | 38.93208 | 64.83257 | 34878 ft | 498 kts | 109° |
| 2026-04-14 11:10 | 38.90419 | 64.96104 | 34884 ft | 501 kts | 109° |
| 2026-04-14 11:10 | 38.88551 | 65.04672 | 34893 ft | 502 kts | 109° |
| 2026-04-14 11:11 | 38.86681 | 65.13230 | 34922 ft | 500 kts | 109° |
| 2026-04-14 11:11 | 38.84804 | 65.21777 | 34883 ft | 500 kts | 109° |
| 2026-04-14 11:12 | 38.82917 | 65.30329 | 34885 ft | 500 kts | 109° |
| 2026-04-14 11:12 | 38.81018 | 65.38903 | 34891 ft | 500 kts | 109° |
| 2026-04-14 11:13 | 38.79126 | 65.47419 | 34893 ft | 499 kts | 109° |
| 2026-04-14 11:13 | 38.77222 | 65.55950 | 34900 ft | 499 kts | 109° |
| 2026-04-14 11:14 | 38.75325 | 65.64417 | 34896 ft | 499 kts | 109° |
| 2026-04-14 11:14 | 38.73404 | 65.72966 | 34900 ft | 499 kts | 109° |
| 2026-04-14 11:15 | 38.71486 | 65.81463 | 34908 ft | 500 kts | 109° |
| 2026-04-14 11:15 | 38.69558 | 65.89983 | 34915 ft | 501 kts | 109° |
| 2026-04-14 11:16 | 38.67620 | 65.98513 | 34919 ft | 499 kts | 109° |
| 2026-04-14 11:16 | 38.65686 | 66.06992 | 34938 ft | 499 kts | 109° |
| 2026-04-14 11:17 | 38.63744 | 66.15472 | 34945 ft | 500 kts | 109° |
| 2026-04-14 11:17 | 38.62052 | 66.24081 | 34958 ft | 502 kts | 102° |
| 2026-04-14 11:18 | 38.61282 | 66.32945 | 34966 ft | 504 kts | 95° |
| 2026-04-14 11:18 | 38.60999 | 66.41866 | 34984 ft | 504 kts | 92° |
| 2026-04-14 11:19 | 38.60797 | 66.50777 | 34998 ft | 503 kts | 92° |
| 2026-04-14 11:19 | 38.60551 | 66.59666 | 35038 ft | 504 kts | 93° |
| 2026-04-14 11:20 | 38.60257 | 66.68570 | 35081 ft | 503 kts | 94° |
| 2026-04-14 11:20 | 38.59933 | 66.77489 | 34882 ft | 505 kts | 94° |
| 2026-04-14 11:21 | 38.59765 | 66.81941 | 34563 ft | 503 kts | 94° |
| 2026-04-14 11:21 | 38.59592 | 66.86467 | 33893 ft | 504 kts | 94° |
| 2026-04-14 11:21 | 38.59420 | 66.90893 | 33119 ft | 505 kts | 94° |
| 2026-04-14 11:21 | 38.59243 | 66.95368 | 32393 ft | 505 kts | 94° |
| 2026-04-14 11:22 | 38.59067 | 66.99854 | 31860 ft | 501 kts | 94° |
| 2026-04-14 11:22 | 38.58891 | 67.04274 | 31284 ft | 497 kts | 94° |
| 2026-04-14 11:22 | 38.58715 | 67.08670 | 30692 ft | 494 kts | 94° |
| 2026-04-14 11:22 | 38.58540 | 67.13004 | 30074 ft | 491 kts | 94° |
| 2026-04-14 11:23 | 38.58362 | 67.17356 | 29464 ft | 488 kts | 94° |
| 2026-04-14 11:23 | 38.58187 | 67.21604 | 28865 ft | 484 kts | 94° |
| 2026-04-14 11:23 | 38.58007 | 67.25917 | 28271 ft | 480 kts | 94° |
| 2026-04-14 11:23 | 38.57829 | 67.30135 | 27684 ft | 477 kts | 94° |
| 2026-04-14 11:24 | 38.57652 | 67.34322 | 27098 ft | 473 kts | 94° |
| 2026-04-14 11:24 | 38.57473 | 67.38511 | 26488 ft | 470 kts | 94° |
| 2026-04-14 11:24 | 38.57293 | 67.42684 | 25887 ft | 466 kts | 94° |
| 2026-04-14 11:24 | 38.57115 | 67.46795 | 25303 ft | 462 kts | 94° |
| 2026-04-14 11:25 | 38.56937 | 67.50847 | 24718 ft | 458 kts | 94° |
| 2026-04-14 11:25 | 38.56759 | 67.54891 | 24114 ft | 454 kts | 94° |
| 2026-04-14 11:25 | 38.56583 | 67.58829 | 23520 ft | 450 kts | 94° |
| 2026-04-14 11:25 | 38.56405 | 67.62790 | 22939 ft | 445 kts | 94° |
| 2026-04-14 11:26 | 38.56227 | 67.66721 | 22362 ft | 441 kts | 95° |
| 2026-04-14 11:26 | 38.56051 | 67.70578 | 21786 ft | 437 kts | 95° |
| 2026-04-14 11:26 | 38.55875 | 67.74416 | 21204 ft | 433 kts | 95° |
| 2026-04-14 11:26 | 38.55697 | 67.78265 | 20584 ft | 430 kts | 95° |
| 2026-04-14 11:27 | 38.55522 | 67.82027 | 20020 ft | 425 kts | 95° |
| 2026-04-14 11:27 | 38.55349 | 67.85745 | 19448 ft | 421 kts | 95° |
| 2026-04-14 11:27 | 38.55175 | 67.89432 | 18843 ft | 418 kts | 95° |
| 2026-04-14 11:27 | 38.55001 | 67.93117 | 18281 ft | 413 kts | 95° |
| 2026-04-14 11:28 | 38.54829 | 67.96728 | 17730 ft | 409 kts | 95° |
| 2026-04-14 11:28 | 38.54656 | 68.00343 | 17163 ft | 405 kts | 95° |
| 2026-04-14 11:28 | 38.54393 | 68.03890 | 16610 ft | 399 kts | 101° |
| 2026-04-14 11:28 | 38.53659 | 68.07252 | 16225 ft | 385 kts | 116° |
| 2026-04-14 11:29 | 38.52259 | 68.10014 | 16041 ft | 367 kts | 132° |
| 2026-04-14 11:29 | 38.50596 | 68.12366 | 15735 ft | 350 kts | 135° |
| 2026-04-14 11:29 | 38.48930 | 68.14576 | 15236 ft | 343 kts | 136° |
| 2026-04-14 11:29 | 38.47283 | 68.16736 | 14549 ft | 341 kts | 136° |
| 2026-04-14 11:30 | 38.45650 | 68.18897 | 13988 ft | 336 kts | 136° |
| 2026-04-14 11:30 | 38.44044 | 68.21049 | 13372 ft | 332 kts | 135° |
| 2026-04-14 11:30 | 38.42508 | 68.23189 | 12743 ft | 330 kts | 131° |
| 2026-04-14 11:30 | 38.41266 | 68.25625 | 12115 ft | 331 kts | 115° |
| 2026-04-14 11:31 | 38.40799 | 68.28487 | 11654 ft | 327 kts | 90° |
| 2026-04-14 11:31 | 38.41184 | 68.31266 | 11407 ft | 315 kts | 73° |
| 2026-04-14 11:31 | 38.41853 | 68.33836 | 11201 ft | 302 kts | 72° |
| 2026-04-14 11:31 | 38.42504 | 68.36340 | 10897 ft | 294 kts | 72° |
| 2026-04-14 11:32 | 38.43135 | 68.38810 | 10481 ft | 290 kts | 72° |
| 2026-04-14 11:32 | 38.43751 | 68.41238 | 10115 ft | 285 kts | 72° |
| 2026-04-14 11:32 | 38.44348 | 68.43579 | 9956 ft | 271 kts | 73° |
| 2026-04-14 11:32 | 38.44984 | 68.45776 | 9813 ft | 258 kts | 65° |
| 2026-04-14 11:33 | 38.45998 | 68.47635 | 9321 ft | 261 kts | 40° |
| 2026-04-14 11:33 | 38.47601 | 68.48697 | 8858 ft | 260 kts | 16° |
| 2026-04-14 11:33 | 38.49292 | 68.49429 | 8472 ft | 259 kts | 24° |
| 2026-04-14 11:34 | 38.52252 | 68.51702 | 8053 ft | 234 kts | 34° |
| 2026-04-14 11:34 | 38.53540 | 68.52870 | 7799 ft | 227 kts | 39° |
| 2026-04-14 11:34 | 38.54474 | 68.54488 | 7252 ft | 231 kts | 72° |
| 2026-04-14 11:34 | 38.54580 | 68.56441 | 6672 ft | 223 kts | 97° |
| 2026-04-14 11:35 | 38.54410 | 68.58378 | 6084 ft | 218 kts | 93° |
| 2026-04-14 11:35 | 38.54373 | 68.60272 | 5626 ft | 210 kts | 89° |
| 2026-04-14 11:35 | 38.54391 | 68.62066 | 5346 ft | 195 kts | 89° |
| 2026-04-14 11:35 | 38.54395 | 68.63750 | 5082 ft | 183 kts | 89° |
| 2026-04-14 11:36 | 38.54392 | 68.65306 | 4878 ft | 170 kts | 90° |
| 2026-04-14 11:36 | 38.54390 | 68.66789 | 4634 ft | 163 kts | 90° |
| 2026-04-14 11:36 | 38.54388 | 68.68192 | 4442 ft | 158 kts | 90° |
| 2026-04-14 11:36 | 38.54388 | 68.69614 | 4232 ft | 159 kts | 90° |
| 2026-04-14 11:37 | 38.54386 | 68.71012 | 4032 ft | 157 kts | 90° |
| 2026-04-14 11:37 | 38.54384 | 68.72405 | 3828 ft | 157 kts | 89° |
| 2026-04-14 11:37 | 38.54382 | 68.73800 | 3625 ft | 156 kts | 89° |
| 2026-04-14 11:37 | 38.54374 | 68.75193 | 3421 ft | 159 kts | 90° |
| 2026-04-14 11:38 | 38.54359 | 68.76616 | 3224 ft | 161 kts | 89° |
| 2026-04-14 11:38 | 38.54371 | 68.78030 | 3016 ft | 158 kts | 89° |
| 2026-04-14 11:38 | 38.54375 | 68.79423 | 2820 ft | 154 kts | 90° |
| 2026-04-14 11:38 | 38.54372 | 68.80790 | 2638 ft | 153 kts | 90° |
| 2026-04-14 11:39 | 38.54371 | 68.81971 | 2609 ft | 102 kts | 90° |
| 2026-04-14 11:39 | 38.54371 | 68.82595 | 2609 ft | 47 kts | 90° |
| 2026-04-14 11:39 | 38.54371 | 68.82976 | 2609 ft | 37 kts | 90° |
| 2026-04-14 11:39 | 38.54371 | 68.83218 | 2609 ft | 16 kts | 89° |
| 2026-04-14 11:40 | 38.54422 | 68.83289 | 2610 ft | 11 kts | 1° |
| 2026-04-14 11:40 | 38.54501 | 68.83291 | 2610 ft | 10 kts | 1° |
| 2026-04-14 11:40 | 38.54573 | 68.83292 | 2611 ft | 10 kts | 0° |
| 2026-04-14 11:40 | 38.54640 | 68.83293 | 2611 ft | 9 kts | 0° |
| 2026-04-14 11:41 | 38.54683 | 68.83244 | 2612 ft | 12 kts | 275° |
| 2026-04-14 11:41 | 38.54684 | 68.83109 | 2611 ft | 17 kts | 270° |
| 2026-04-14 11:41 | 38.54684 | 68.82947 | 2611 ft | 18 kts | 270° |
| 2026-04-14 11:41 | 38.54683 | 68.82806 | 2611 ft | 14 kts | 270° |
| 2026-04-14 11:42 | 38.54683 | 68.82682 | 2611 ft | 13 kts | 270° |
| 2026-04-14 11:42 | 38.54683 | 68.82564 | 2611 ft | 12 kts | 270° |
| 2026-04-14 11:42 | 38.54684 | 68.82455 | 2611 ft | 12 kts | 270° |
| 2026-04-14 11:42 | 38.54685 | 68.82352 | 2611 ft | 11 kts | 277° |
| 2026-04-14 11:43 | 38.54694 | 68.82256 | 2611 ft | 11 kts | 270° |
| 2026-04-14 11:43 | 38.54694 | 68.82144 | 2611 ft | 14 kts | 271° |
| 2026-04-14 11:43 | 38.54694 | 68.82027 | 2611 ft | 9 kts | 270° |
| 2026-04-14 11:43 | 38.54694 | 68.81942 | 2611 ft | 8 kts | 270° |
| 2026-04-14 11:44 | 38.54694 | 68.81917 | 2611 ft | 0 kts | 271° |
| 2026-04-14 11:44 | 38.54694 | 68.81909 | 2611 ft | 2 kts | 271° |
| 2026-04-14 11:45 | 38.54695 | 68.81861 | 2611 ft | 7 kts | 270° |
| 2026-04-14 11:45 | 38.54695 | 68.81799 | 2611 ft | 5 kts | 270° |
| 2026-04-14 11:45 | 38.54695 | 68.81754 | 2611 ft | 5 kts | 270° |
| 2026-04-14 11:45 | 38.54695 | 68.81674 | 2611 ft | 9 kts | 270° |
| 2026-04-14 11:46 | 38.54713 | 68.81632 | 2611 ft | 5 kts | 346° |
| 2026-04-14 11:46 | 38.54747 | 68.81628 | 2611 ft | 5 kts | 360° |
| 2026-04-14 11:46 | 38.54785 | 68.81643 | 2611 ft | 5 kts | 52° |
| 2026-04-14 11:46 | 38.54793 | 68.81686 | 2611 ft | 4 kts | 90° |
| 2026-04-14 11:47 | 38.54793 | 68.81720 | 2611 ft | 0 kts | 91° |